Extreme weather reports worldwide

Lowest temperatures

Station
 
Location
 
Name
 
Wind
Knots
Gust
Knots
Vis
SM
Temp/Dew
C
Baro
inHg
METAR
 
YRB CYRB Resolute Bay, CA Resolute Bay Airport 2 15 -16/-18 30.28 CYRB 070900Z VRB02KT 15SM -SN BKN058 OVC100 M16/M18 A3028 RMK SC5AC3 SLP266
CXRB 5 -16/-18 CXRB 070900Z AUTO 31005KT M17/M19 RMK AO1 SOG 14 3003 SLP269 T11661188
AKP PAKP Anaktuvuk Pass, US Anaktuvuk Pass Airport 10 4 -12/-14 30.02 PAKP 070941Z AUTO 03010KT 4SM BR BKN003 OVC008 M12/M14 A3002 RMK AO2 SNB26E36 P0000 FZRANO
CWEU 12 15 -11/-15 30.23 CWEU 070906Z 35012KT 270V360 15SM OVC030 OVC170 M11/M15 A3023 RMK SC8AC1 AC TR WSHFT 0900 SLP249
PIZ PPIZ Point Lay, US Point Lay LRRS Airport 21 9 -11/-13 30.21 PPIZ 070856Z AUTO 06021KT 9SM CLR M12/M13 A3021 RMK AO2 SLP232 T11171133 58001 FZRANO

Station
 
Location
 
Name
 
Wind
Knots
Gust
Knots
Vis
SM
Temp/Dew
C
Baro
inHg
METAR
 
ATK PATQ Atqasuk, US Atqasuk Edward Burnell Sr Memorial Airport 15 9 -11/-12 30.31 PATQ 070856Z AUTO 09015KT 9SM -SN OVC005 M11/M12 A3031 RMK AO2 SLP269 6//// T11111122 410781178 55003 FZRANO TSNO PNO $
CWLI 12 -11/-12 30.27 CWLI 070900Z AUTO 06012KT ////SM NCD M11/M12 A3027
CXAT 2 -10/-11 CXAT 070900Z AUTO 35002KT M10/M11 RMK AO1 SOG 04 3008 SLP249 T11001112
CYUS 11 -10/-11 30.37 CYUS 070900Z AUTO 31011KT ////SM //// OVC002 M10/M11 A3037
CXSE 5 -10/-12 CXSE 070900Z AUTO 06005KT M11/M12 RMK AO1 SOG 56 SLP285 T11091123
BRW PABR Utqiaġvik, US Wiley Post Will Rogers Memorial Airport 7 0.25 -9/-11 30.34 PABR 070853Z AUTO 08007KT 1/4SM R07/1600V4000FT FZFG VV003 M09/M12 A3034 RMK AO2 SLP276 I3000 T10941117 410941167 56002 TSNO
DYR UHMA Anadyr, RU Ugolny Airport 2 6.21 -9/-10 29.97 UHMA 070900Z 36001MPS 9999 VCFG NSC M09/M10 Q1015 R01/60D NOSIG RMK TDZ R01/36001MPS END R01/00000G01MPS QFE758/1010
CXTN 2 -9/-10 CXTN 070900Z AUTO 20002KT M10/M11 RMK AO1 SOG 114 6008 SLP263 T10971108
CWPX 5 -8/-9 30.31 CWPX 070900Z AUTO 01005KT ////SM //// OVC004 M08/M09 A3031
CWKP 10 15 -8/-9 30.25 CWKP 070900Z AUTO 10010G15KT ////SM OVC004 M08/M09 A3025
CWJC Ennadai, CA Ennadai Lake Airport 5 -8/-9 CWJC 070900Z AUTO 34005KT M08/M09 RMK AO1 SLP305 T10841093 53002
CWIL 6 -8/-8 30.42 CWIL 070900Z AUTO 23006KT ////SM ////// M08/M08 A3042
CWIJ 5 -8/-9 CWIJ 070900Z AUTO 13005KT M09/M10 RMK AO1 SOG 84 6002 SLP279 T10861097
YYH CYYH Taloyoak, CA Taloyoak Airport 9 1 -7/-8 30.34 CYYH 070927Z CCA 25009KT 1SM BR VV003 M07/M08 A3034 RMK FG8 VIS W 3 SLP280
CWXR 6 -7/-8 30.34 CWXR 070900Z AUTO 29006KT ////SM OVC014 M07/M08 A3034
YHK CYHK Gjoa Haven, CA Gjoa Haven Airport 11 2 -7/-7 30.38 CYHK 070938Z AUTO 30011KT 2SM BR OVC003 M07/M07 A3038 RMK VIS VRB 1 1/4-3 ICG SLP295
SHH PASH Shishmaref, US Shishmaref Airport 8 1.25 -7/-7 29.97 PASH 070937Z AUTO 27008KT 1 1/4SM UP BR CLR M07/M07 A2997 RMK AO2 UPB03E10B36SNE03B25E36 P0000 FZRANO
YUX CYUX Hall Beach, CA Hall Beach Airport 10 6 -7/-7 30.27 CYUX 070924Z AUTO 33010KT 6SM BR OVC004 M07/M07 A3027 RMK SLP253
K06D 5 10 -7/-10 30.24 K06D 070935Z AUTO 35005KT 10SM CLR M07/M10 A3024 RMK AO2
KMWN 17 10 -7/-9 KMWN 070852Z 32017KT 110SM FEW120 FEW160 SCT200 M07/M09 RMK
YCB CYCB Cambridge Bay, CA Cambridge Bay Airport 0 10 -7/-9 30.40 CYCB 070900Z 00000KT 10SM BKN006 OVC015 M07/M09 A3040 RMK SC6SC2 SLP300
YBR CYBR Brandon, CA Brandon Municipal Airport 5 15 -7/-10 30.26 CYBR 070900Z 29005KT 15SM SKC M07/M10 A3026 RMK SLP270
CPIN 3 -7/-7 30.36 CPIN 070900Z AUTO 12003KT 070V160 ////SM OVC007 M07/M07 A3036
K9D7 3 10 -7/-7 30.27 K9D7 070935Z AUTO 31003KT 10SM CLR M07/M07 A3027 RMK AO2 TSNO
CBAR 12 -7/-8 30.33 CBAR 070900Z AUTO 07012KT ////SM OVC018 M07/M08 A3033
BTI PABA Barter Island Lrrs, US Barter Island LRRS Airport 14 4 -6/-6 30.29 PABA 070929Z AUTO 07014KT 4SM BR OVC003 M06/M06 A3029 RMK AO2 FZRANO
YRT CYRT Rankin Inlet, CA Rankin Inlet Airport 10 15 -6/-7 30.27 CYRT 070929Z 04010KT 15SM BKN006 M06/M07 A3027 RMK SC7 SLP255
LYR ENSB Longyearbyen, NO Svalbard Airport, Longyear 7 6.21 -6/-12 30.21 ENSB 070920Z 14007KT 110V190 9999 FEW020 M06/M12 Q1023 NOSIG RMK WIND 1400FT 13006KT
KD55 0 10 -6/-6 30.23 KD55 070935Z AUTO 00000KT 10SM CLR M06/M06 A3023 RMK AO2
CWVH 18 -6/-7 30.19 CWVH 070900Z AUTO 08018KT ////SM SCT003 OVC070 M06/M07 A3019
CZCP 13 -6/-7 30.32 CZCP 070900Z AUTO 07013KT ////SM //// OVC015 M06/M07 A3032
PAAD Deadhorse, US Point Thomson Airstrip 16 10 -6/-7 30.25 PAAD 070935Z AUTO 06016KT 10SM OVC013 M06/M08 A3025 RMK AO2 T10631076
SCC PASC Deadhorse, US Deadhorse Airport 15 0.5 -6/-8 30.28 PASC 070853Z 07015KT 1/2SM R06/5500VP6000FT -SN BLSN BKN007 OVC012 M07/M08 A3028 RMK AO2 SLP255 P0000 60000 T10671083 410671106 58007 $
CWIK 6 -6/-9 CWIK 070900Z AUTO 14006KT M07/M10 RMK AO1 SLP266 T10651098 51002
LUR PALU Cape Lisburne, US Cape Lisburne LRRS Airport 15 10 -6/-8 30.09 PALU 070855Z AUTO 11015KT 10SM CLR M06/M08 A3009 RMK AO2 SLP188 T10601080 410311104 57004
YDN CYDN Dauphin, CA Dauphin Barker Airport 6 9 -6/-8 30.28 CYDN 070900Z AUTO 27006KT 9SM CLR M06/M08 A3028 RMK SLP270
LIMH IT Pian Rosà 9 0.5 -6/-6 29.85 LIMH 070855Z 26009KT 0800 -SN FZFG VV/// M06/M06 Q1011 RMK MON INVIS VAL INVIS VIS MIN 0800
YAH CYAH La Grande-4, CA La Grande-4 Airport 0 9 -6/-7 29.93 CYAH 070900Z AUTO 00000KT 9SM CLR M06/M07 A2993 RMK SLP157
YCO CYCO Kugluktuk, CA Kugluktuk Airport 4 4 -6/-7 30.34 CYCO 070918Z 29004KT 4SM -SN BR OVC004 M06/M07 A3034 RMK ST8 VIS E-1 SLP279
THU BGTL Thule, GL Thule Air Base 6 6.21 -5/-5 30.14 BGTL 070926Z 29006KT 9999 OVC004 M05/M05 A3014 RMK AO2A CIG 003 RWY26 SLP193 TSNO $
KD57 0 10 -5/-8 30.18 KD57 070935Z AUTO 00000KT 10SM CLR M05/M08 A3018 RMK AO2
YZS CYZS Coral Harbour, CA Coral Harbour Airport 17 15 -5/-7 30.13 CYZS 070900Z 03017KT 15SM BKN020 M05/M07 A3013 RMK SC5 SLP209
CWRX 13 -5/-5 30.22 CWRX 070900Z AUTO 30013KT ////SM OVC006 M05/M05 A3022
CWPD 1 -5/-6 CWPD 070900Z AUTO 20001KT M06/M07 RMK AO1 SLP143 T10571066 53004
YSF CYSF Stony Rapids, CA Stony Rapids Airport 2 9 -5/-7 30.37 CYSF 070900Z AUTO 14002KT 9SM CLR M05/M07 A3037 RMK SLP302